Time,TemperatureF,DewpointF,PressureIn,WindDirection,WindDirectionDegrees,WindSpeedMPH,WindSpeedGustMPH,Humidity,HourlyPrecipIn,Conditions,Clouds,dailyrainin,SoftwareType,DateUTC
2013-05-15 00:03:00,43.0,-99.9,-100.00,WNW,293,27.0,36.0,-999,-99.99,,,-99.99,,2013-05-15 06:03:00,
2013-05-15 00:12:00,43.0,-99.9,-100.00,WNW,295,25.0,39.0,-999,-99.99,,,-99.99,,2013-05-15 06:12:00,
2013-05-15 00:22:00,43.0,-99.9,-100.00,WNW,295,25.0,39.0,-999,-99.99,,,-99.99,,2013-05-15 06:22:00,
2013-05-15 00:32:00,43.0,-99.9,-100.00,WNW,294,24.0,33.0,-999,-99.99,,,-99.99,,2013-05-15 06:32:00,
2013-05-15 00:42:00,43.0,-99.9,-100.00,WNW,294,24.0,33.0,-999,-99.99,,,-99.99,,2013-05-15 06:42:00,
2013-05-15 00:52:00,43.0,-99.9,-100.00,NW,304,21.0,31.0,-999,-99.99,,,-99.99,,2013-05-15 06:52:00,
2013-05-15 01:01:00,44.0,-99.9,-100.00,WNW,296,24.0,32.0,-999,-99.99,,,-99.99,,2013-05-15 07:01:00,
2013-05-15 01:11:00,44.0,-99.9,-100.00,WNW,296,24.0,32.0,-999,-99.99,,,-99.99,,2013-05-15 07:11:00,
2013-05-15 01:22:00,43.0,-99.9,-100.00,NW,304,23.0,36.0,-999,-99.99,,,-99.99,,2013-05-15 07:22:00,
2013-05-15 01:32:00,42.0,-99.9,-100.00,NW,308,19.0,26.0,-999,-99.99,,,-99.99,,2013-05-15 07:32:00,
2013-05-15 01:42:00,42.0,-99.9,-100.00,NW,308,19.0,26.0,-999,-99.99,,,-99.99,,2013-05-15 07:42:00,
2013-05-15 01:52:00,43.0,-99.9,-100.00,NW,304,19.0,28.0,-999,-99.99,,,-99.99,,2013-05-15 07:52:00,
2013-05-15 02:02:00,42.0,-99.9,-100.00,NW,308,21.0,31.0,-999,-99.99,,,-99.99,,2013-05-15 08:02:00,
2013-05-15 02:12:00,42.0,-99.9,-100.00,NW,308,21.0,31.0,-999,-99.99,,,-99.99,,2013-05-15 08:12:00,
2013-05-15 02:22:00,42.0,-99.9,-100.00,WNW,296,20.0,26.0,-999,-99.99,,,-99.99,,2013-05-15 08:22:00,
2013-05-15 02:32:00,42.0,-99.9,-100.00,WNW,290,21.0,33.0,-999,-99.99,,,-99.99,,2013-05-15 08:32:00,
2013-05-15 02:42:00,42.0,-99.9,-100.00,WNW,296,21.0,29.0,-999,-99.99,,,-99.99,,2013-05-15 08:42:00,
2013-05-15 02:53:00,42.0,-99.9,-100.00,WNW,296,21.0,29.0,-999,-99.99,,,-99.99,,2013-05-15 08:53:00,
2013-05-15 03:01:00,42.0,-99.9,-100.00,WNW,285,17.0,26.0,-999,-99.99,,,-99.99,,2013-05-15 09:01:00,
2013-05-15 03:12:00,42.0,-99.9,-100.00,WNW,285,17.0,26.0,-999,-99.99,,,-99.99,,2013-05-15 09:12:00,
2013-05-15 03:22:00,41.0,-99.9,-100.00,WNW,287,16.0,24.0,-999,-99.99,,,-99.99,,2013-05-15 09:22:00,
2013-05-15 03:33:00,41.0,-99.9,-100.00,WNW,296,17.0,26.0,-999,-99.99,,,-99.99,,2013-05-15 09:33:00,
2013-05-15 03:42:00,39.0,-99.9,-100.00,WNW,301,14.0,21.0,-999,-99.99,,,-99.99,,2013-05-15 09:42:00,
2013-05-15 03:53:00,39.0,-99.9,-100.00,WNW,301,14.0,21.0,-999,-99.99,,,-99.99,,2013-05-15 09:53:00,
2013-05-15 04:02:00,39.0,-99.9,-100.00,WNW,290,17.0,29.0,-999,-99.99,,,-99.99,,2013-05-15 10:02:00,
2013-05-15 04:13:00,39.0,-99.9,-100.00,West,280,17.0,24.0,-999,-99.99,,,-99.99,,2013-05-15 10:13:00,
2013-05-15 04:23:00,39.0,-99.9,-100.00,West,280,17.0,24.0,-999,-99.99,,,-99.99,,2013-05-15 10:23:00,
2013-05-15 04:32:00,39.0,-99.9,-100.00,West,272,17.0,22.0,-999,-99.99,,,-99.99,,2013-05-15 10:32:00,
2013-05-15 04:43:00,39.0,-99.9,-100.00,West,271,16.0,22.0,-999,-99.99,,,-99.99,,2013-05-15 10:43:00,
2013-05-15 04:53:00,39.0,-99.9,-100.00,West,271,16.0,22.0,-999,-99.99,,,-99.99,,2013-05-15 10:53:00,
2013-05-15 05:29:00,39.0,-99.9,-100.00,West,268,15.0,19.0,-999,-99.99,,,-99.99,,2013-05-15 11:29:00,
2013-05-15 05:41:00,39.0,-99.9,-100.00,West,260,18.0,25.0,-999,-99.99,,,-99.99,,2013-05-15 11:41:00,
2013-05-15 05:50:00,38.0,-99.9,-100.00,WSW,257,18.0,22.0,-999,-99.99,,,-99.99,,2013-05-15 11:50:00,
2013-05-15 06:11:00,38.0,-99.9,-100.00,WSW,245,17.0,26.0,-999,-99.99,,,-99.99,,2013-05-15 12:11:00,
2013-05-15 06:17:00,38.0,-99.9,-100.00,WSW,240,15.0,21.0,-999,-99.99,,,-99.99,,2013-05-15 12:17:00,
2013-05-15 06:30:00,38.0,-99.9,-100.00,WSW,240,15.0,21.0,-999,-99.99,,,-99.99,,2013-05-15 12:30:00,
2013-05-15 06:38:00,38.0,-99.9,-100.00,WSW,241,16.0,24.0,-999,-99.99,,,-99.99,,2013-05-15 12:38:00,
2013-05-15 06:49:00,38.0,-99.9,-100.00,WSW,244,13.0,21.0,-999,-99.99,,,-99.99,,2013-05-15 12:49:00,
2013-05-15 06:58:00,38.0,-99.9,-100.00,WSW,244,13.0,21.0,-999,-99.99,,,-99.99,,2013-05-15 12:58:00,
2013-05-15 07:12:00,38.0,-99.9,-100.00,West,265,9.0,14.0,-999,-99.99,,,-99.99,,2013-05-15 13:12:00,
2013-05-15 07:20:00,38.0,-99.9,-100.00,West,263,13.0,16.0,-999,-99.99,,,-99.99,,2013-05-15 13:20:00,
2013-05-15 07:29:00,38.0,-99.9,-100.00,West,263,13.0,16.0,-999,-99.99,,,-99.99,,2013-05-15 13:29:00,
2013-05-15 07:49:00,39.0,-99.9,-100.00,WSW,253,13.0,16.0,-999,-99.99,,,-99.99,,2013-05-15 13:49:00,
2013-05-15 08:00:00,39.0,-99.9,-100.00,West,259,12.0,15.0,-999,-99.99,,,-99.99,,2013-05-15 14:00:00,
2013-05-15 08:09:00,39.0,-99.9,-100.00,WSW,254,13.0,16.0,-999,-99.99,,,-99.99,,2013-05-15 14:09:00,
2013-05-15 08:14:00,41.0,-99.9,-100.00,WSW,248,13.0,16.0,-999,-99.99,,,-99.99,,2013-05-15 14:14:00,
2013-05-15 08:29:00,41.0,-99.9,-100.00,WSW,248,13.0,16.0,-999,-99.99,,,-99.99,,2013-05-15 14:29:00,
2013-05-15 08:52:00,43.0,-99.9,-100.00,WSW,258,10.0,15.0,-999,-99.99,,,-99.99,,2013-05-15 14:52:00,
2013-05-15 09:11:00,43.0,-99.9,-100.00,WSW,257,11.0,15.0,-999,-99.99,,,-99.99,,2013-05-15 15:11:00,
2013-05-15 09:16:00,44.0,-99.9,-100.00,WSW,253,9.0,14.0,-999,-99.99,,,-99.99,,2013-05-15 15:16:00,
2013-05-15 09:30:00,44.0,-99.9,-100.00,WSW,253,9.0,14.0,-999,-99.99,,,-99.99,,2013-05-15 15:30:00,
2013-05-15 09:41:00,43.0,-99.9,-100.00,West,270,8.0,11.0,-999,-99.99,,,-99.99,,2013-05-15 15:41:00,
2013-05-15 10:03:00,44.0,-99.9,-100.00,WSW,246,2.0,8.0,-999,-99.99,,,-99.99,,2013-05-15 16:03:00,
2013-05-15 10:10:00,45.0,-99.9,-100.00,North,-999,0.0,0.0,-999,-99.99,,,-99.99,,2013-05-15 16:10:00,
2013-05-15 10:25:00,45.0,-99.9,-100.00,North,-999,0.0,0.0,-999,-99.99,,,-99.99,,2013-05-15 16:25:00,
2013-05-15 10:30:00,48.0,-99.9,-100.00,North,-999,0.0,0.0,-999,-99.99,,,-99.99,,2013-05-15 16:30:00,
2013-05-15 10:31:00,45.0,-99.9,-100.00,North,-999,0.0,0.0,-999,-99.99,,,-99.99,,2013-05-15 16:31:00,
2013-05-15 10:40:00,46.0,-99.9,-100.00,East,83,0.0,4.0,-999,-99.99,,,-99.99,,2013-05-15 16:40:00,
2013-05-15 10:52:00,46.0,-99.9,-100.00,East,83,0.0,4.0,-999,-99.99,,,-99.99,,2013-05-15 16:52:00,
2013-05-15 11:04:00,47.0,-99.9,-100.00,North,-999,0.0,0.0,-999,-99.99,,,-99.99,,2013-05-15 17:04:00,
2013-05-15 11:14:00,48.0,-99.9,-100.00,North,-999,0.0,0.0,-999,-99.99,,,-99.99,,2013-05-15 17:14:00,